Superior, IA (51363)

3:43 PM CST on January 28, 2015 (GMT -0600)
East Lake Okoboji - Whisper Oaks | Change Station
CLOSE
Current Station
Personal Weather Station
Location: Spirit Lake, IA
Elevation: 1434 ft
Nearby Weather Stations
Active Advisory: Wind Advisory

Elev 1434 ft 43.42 °N, 95.09 °W | Updated 14 minutes ago

Overcast
Overcast
32.4 °F
Feels Like 24 °F
N
11.0
Wind Variable Wind from East
Gusts 12.0 mph

Today
High -- | Low -- °F
--% Chance of Precip.
Yesterday
High -- | Low -- °F
Precip. -- in
7:40 AM 5:25 PM
Waxing Gibbous, 68% visible
Pressure 29.76 in
Visibility 2.5 miles
Clouds Overcast 600 ft
Windchill 24 °F
Dew Point 31 °F
Humidity 93%
Rainfall 0.00 in
Snow Depth Not available.
UV 0 out of 12
Pollen .90 out of 12
Air Quality Not available.
Flu Activity Not available.
METAR KEST 282052Z AUTO 14011KT 2 1/2SM BR OVC006 00/M01 A2972 RMK AO2 SLP077 T00001011 56028

More Conditions Fewer Conditions

Pressure 29.76 in
Visibility 2.5 miles
Clouds Overcast 600 ft
Windchill 24 °F
Dew Point 31 °F
Humidity 93%
Rainfall 0.00 in
Snow Depth Not available.
UV 0 out of 12
Pollen .90 out of 12
Air Quality Not available.
Flu Activity Not available.
METAR KEST 282052Z AUTO 14011KT 2 1/2SM BR OVC006 00/M01 A2972 RMK AO2 SLP077 T00001011 56028

More Conditions Fewer Conditions

10-Day Weather Forecast

Almanac

Astronomy

Jan. 28, 2015 Rise Set
Actual Time
Civil Twilight
Nautical Twilight
Astronomical Twilight
Moon
Length of Visible Light
Length of Day
Tomorrow will be .
, % of the Moon is Illuminated

Today's Extremes

State Highs State Lows

Community

WunderPhotos

Upload Photos

1,791,271 photos uploaded!

WunderBlogs® & News

Nearby

Air Quality

  Air Quality AQ Index Pollutant
Not available.

Snow Depth

Station Depth Elevation

Earthquake Activity

City Distance Mag. Time & Date
Minimum magnitude displayed is 2.5.

Coastal Water Temperatures

Place Temperature

Nearby Weather Stations